createdAt,value
2023-05-05T00:00:36.652Z,86.50
2023-05-05T00:03:25.077Z,86.70
2023-05-05T00:06:12.254Z,86.90
2023-05-05T00:09:01.028Z,87.00
2023-05-05T00:11:48.038Z,87.10
2023-05-05T00:14:35.391Z,87.10
2023-05-05T00:17:22.534Z,87.50
2023-05-05T00:20:10.436Z,87.50
2023-05-05T00:22:57.664Z,87.80
2023-05-05T00:25:46.094Z,88.00
2023-05-05T00:28:33.265Z,88.10
2023-05-05T00:31:20.320Z,88.30
2023-05-05T00:34:07.754Z,88.70
2023-05-05T00:36:54.813Z,88.90
2023-05-05T00:39:42.498Z,89.10
2023-05-05T00:42:41.069Z,89.30
2023-05-05T00:45:28.586Z,89.60
2023-05-05T00:48:19.073Z,89.70
2023-05-05T00:51:09.617Z,90.00
2023-05-05T00:53:56.911Z,90.00
2023-05-05T00:56:43.816Z,90.10
2023-05-05T00:59:34.075Z,90.20
2023-05-05T01:02:22.902Z,90.30
2023-05-05T01:05:11.159Z,90.70
2023-05-05T01:08:15.705Z,90.50
2023-05-05T01:11:09.060Z,90.50
2023-05-05T01:14:07.321Z,90.60
2023-05-05T01:17:00.410Z,90.70
2023-05-05T01:20:10.609Z,90.70
2023-05-05T01:23:04.185Z,90.80
2023-05-05T01:26:07.544Z,90.40
2023-05-05T01:29:08.786Z,91.00
2023-05-05T01:32:01.328Z,91.00
2023-05-05T01:34:55.221Z,91.30
2023-05-05T01:37:50.534Z,91.10
2023-05-05T01:40:43.696Z,91.30
2023-05-05T01:43:32.020Z,91.30
2023-05-05T01:46:22.973Z,91.10
2023-05-05T01:49:14.657Z,91.40
2023-05-05T01:52:03.822Z,91.60
2023-05-05T01:54:52.361Z,91.60
2023-05-05T01:57:42.849Z,91.70
2023-05-05T02:00:31.817Z,91.80
2023-05-05T02:03:20.380Z,91.90
2023-05-05T02:06:11.585Z,92.00
2023-05-05T02:09:00.127Z,92.10
2023-05-05T02:11:47.313Z,92.20
2023-05-05T02:14:35.831Z,92.30
2023-05-05T02:17:24.442Z,92.40
2023-05-05T02:20:13.994Z,92.50
2023-05-05T02:23:04.792Z,92.50
2023-05-05T02:25:56.913Z,92.60
2023-05-05T02:28:49.970Z,92.60
2023-05-05T02:31:45.356Z,93.00
2023-05-05T02:34:38.164Z,92.60
2023-05-05T02:37:31.339Z,92.70
2023-05-05T02:40:25.775Z,92.80
2023-05-05T02:43:19.581Z,92.80
2023-05-05T02:46:08.196Z,92.90
2023-05-05T02:48:59.762Z,93.00
2023-05-05T02:51:47.463Z,93.10
2023-05-05T02:54:42.053Z,93.10
2023-05-05T02:57:40.152Z,93.10
2023-05-05T03:00:35.644Z,93.20
2023-05-05T03:06:19.332Z,99.90
2023-05-05T03:09:12.100Z,99.90
2023-05-05T03:12:03.920Z,99.90
2023-05-05T03:15:00.319Z,99.90
2023-05-05T03:17:51.530Z,99.90
2023-05-05T03:23:30.973Z,93.40
2023-05-05T03:26:19.661Z,93.80
2023-05-05T03:29:08.099Z,94.30
2023-05-05T03:32:01.149Z,93.90
2023-05-05T03:34:49.312Z,94.00
2023-05-05T03:37:36.225Z,93.90
2023-05-05T03:40:36.387Z,94.00
2023-05-05T03:43:32.243Z,94.00
2023-05-05T03:46:19.399Z,94.10
2023-05-05T03:49:09.916Z,94.10
2023-05-05T03:51:59.475Z,94.20
2023-05-05T03:54:47.499Z,94.10
2023-05-05T03:57:35.549Z,94.20
2023-05-05T04:00:22.865Z,94.40
2023-05-05T04:03:10.405Z,94.50
2023-05-05T04:05:59.290Z,94.60
2023-05-05T04:08:46.627Z,94.60
2023-05-05T04:11:33.714Z,94.70
2023-05-05T04:14:21.531Z,94.60
2023-05-05T04:17:08.771Z,94.70
2023-05-05T04:19:56.344Z,94.60
2023-05-05T04:22:44.431Z,94.80
2023-05-05T04:25:31.740Z,94.80
2023-05-05T04:28:20.316Z,94.80
2023-05-05T04:31:09.368Z,94.90
2023-05-05T04:33:58.909Z,94.90
2023-05-05T04:36:46.296Z,95.10
2023-05-05T04:39:35.511Z,95.10
2023-05-05T04:42:23.943Z,95.10
2023-05-05T04:45:11.876Z,95.20
2023-05-05T04:48:00.544Z,95.20
2023-05-05T04:50:48.088Z,95.30
2023-05-05T04:53:35.024Z,95.40
2023-05-05T04:56:23.900Z,95.50
2023-05-05T04:59:11.314Z,95.50
2023-05-05T05:01:58.462Z,95.60
2023-05-05T05:04:45.346Z,95.70
2023-05-05T05:07:32.364Z,95.70
2023-05-05T05:10:19.680Z,95.70
2023-05-05T05:13:11.312Z,95.60
2023-05-05T05:16:00.263Z,95.20
2023-05-05T05:18:47.597Z,95.00
2023-05-05T05:21:35.011Z,94.90
2023-05-05T05:24:22.853Z,95.00
2023-05-05T05:27:10.451Z,95.20
2023-05-05T05:30:02.291Z,95.30
2023-05-05T05:32:51.446Z,95.20
2023-05-05T05:35:38.751Z,95.10
2023-05-05T05:38:26.499Z,94.80
2023-05-05T05:41:17.368Z,94.80
2023-05-05T05:44:04.857Z,94.80
2023-05-05T05:46:53.484Z,94.70
2023-05-05T05:49:40.481Z,94.30
2023-05-05T05:52:27.527Z,94.00
2023-05-05T05:55:14.964Z,93.90
2023-05-05T05:58:02.077Z,93.70
2023-05-05T06:00:50.107Z,93.60
2023-05-05T06:03:38.692Z,93.10
2023-05-05T06:06:28.016Z,92.70
2023-05-05T06:09:15.049Z,92.70
2023-05-05T06:12:04.058Z,92.90
2023-05-05T06:14:51.845Z,92.60
2023-05-05T06:17:39.309Z,92.20
2023-05-05T06:20:28.488Z,91.90
2023-05-05T06:23:16.046Z,91.80
2023-05-05T06:26:08.571Z,91.70
2023-05-05T06:28:56.282Z,91.60
2023-05-05T06:31:43.226Z,91.40
2023-05-05T06:34:30.813Z,91.30
2023-05-05T06:37:19.688Z,91.00
2023-05-05T06:40:09.018Z,90.70
2023-05-05T06:42:57.357Z,90.40
2023-05-05T06:45:50.557Z,90.00
2023-05-05T06:48:37.594Z,88.60
2023-05-05T06:51:24.926Z,87.80
2023-05-05T06:54:13.452Z,87.00
2023-05-05T06:57:00.826Z,85.90
2023-05-05T06:59:48.285Z,85.70
2023-05-05T07:02:35.611Z,84.30
2023-05-05T07:05:22.642Z,83.80
2023-05-05T07:08:11.435Z,83.20
2023-05-05T07:11:01.199Z,82.90
2023-05-05T07:13:49.382Z,82.70
2023-05-05T07:16:37.422Z,82.40
2023-05-05T07:19:24.979Z,82.10
2023-05-05T07:22:12.628Z,81.70
2023-05-05T07:25:00.269Z,80.80
2023-05-05T07:27:48.828Z,79.60
2023-05-05T07:30:35.884Z,79.10
2023-05-05T07:33:24.025Z,77.90
2023-05-05T07:36:11.232Z,76.50
2023-05-05T07:38:58.466Z,76.10
2023-05-05T07:41:46.056Z,74.70
2023-05-05T07:44:35.453Z,73.30
2023-05-05T07:47:22.432Z,72.10
2023-05-05T07:50:10.042Z,70.30
2023-05-05T07:53:10.773Z,67.40
2023-05-05T07:56:02.270Z,64.40
2023-05-05T07:58:49.555Z,57.40
2023-05-05T08:01:38.071Z,56.70
2023-05-05T08:04:25.071Z,54.40
2023-05-05T08:07:12.747Z,51.70
2023-05-05T08:09:59.792Z,48.80
2023-05-05T08:15:35.803Z,43.60
2023-05-05T08:18:24.671Z,42.60
2023-05-05T08:24:00.619Z,37.60
2023-05-05T08:26:48.205Z,36.60
2023-05-05T08:29:35.584Z,35.20
2023-05-05T08:32:22.784Z,33.60
2023-05-05T08:35:12.118Z,33.70
2023-05-05T08:38:00.188Z,31.90
2023-05-05T08:40:47.875Z,30.70
2023-05-05T08:43:36.578Z,30.90
2023-05-05T08:46:25.130Z,30.70
2023-05-05T08:49:16.674Z,29.80
2023-05-05T08:52:10.523Z,29.40
2023-05-05T08:55:06.194Z,29.20
2023-05-05T08:57:56.431Z,28.50
2023-05-05T09:00:46.035Z,28.20
2023-05-05T09:03:34.616Z,28.60
2023-05-05T09:06:24.498Z,27.90
2023-05-05T09:09:13.588Z,28.30
2023-05-05T09:12:02.184Z,28.00
2023-05-05T09:14:49.451Z,28.60
2023-05-05T09:17:37.201Z,28.50
2023-05-05T09:20:24.360Z,29.00
2023-05-05T09:23:13.164Z,28.70
2023-05-05T09:26:10.069Z,28.40
2023-05-05T09:28:58.504Z,28.50
2023-05-05T09:31:45.912Z,28.90
2023-05-05T09:34:36.294Z,30.10
2023-05-05T09:37:33.203Z,30.40
2023-05-05T09:40:21.466Z,30.00
2023-05-05T09:43:11.293Z,29.60
2023-05-05T09:46:08.592Z,29.60
2023-05-05T09:48:56.052Z,28.90
2023-05-05T09:51:43.424Z,28.50
2023-05-05T09:54:34.169Z,29.70
2023-05-05T09:57:30.814Z,30.00
2023-05-05T10:00:19.992Z,29.90
2023-05-05T10:03:07.444Z,30.70
2023-05-05T10:05:55.921Z,30.10
2023-05-05T10:08:43.347Z,32.10
2023-05-05T10:11:31.156Z,32.40
2023-05-05T10:14:19.951Z,33.90
2023-05-05T10:17:11.315Z,36.10
2023-05-05T10:20:00.221Z,35.00
2023-05-05T10:22:54.885Z,36.10
2023-05-05T10:25:46.715Z,37.40
2023-05-05T10:28:36.026Z,38.90
2023-05-05T10:31:30.871Z,38.50
2023-05-05T10:34:29.858Z,40.00
2023-05-05T10:37:19.244Z,38.80
2023-05-05T10:40:08.349Z,40.20
2023-05-05T10:42:56.495Z,40.40
2023-05-05T10:45:44.523Z,40.30
2023-05-05T10:48:38.384Z,41.80
2023-05-05T10:51:40.330Z,42.10
2023-05-05T10:54:35.748Z,42.90
2023-05-05T10:57:28.071Z,43.00
2023-05-05T11:00:45.012Z,42.40
2023-05-05T11:03:32.085Z,42.90
2023-05-05T11:06:19.523Z,42.70
2023-05-05T11:09:30.220Z,43.20
2023-05-05T11:12:17.631Z,44.20
2023-05-05T11:15:42.012Z,43.90
2023-05-05T11:18:34.255Z,44.40
2023-05-05T11:21:21.594Z,46.20
2023-05-05T11:24:30.987Z,45.80
2023-05-05T11:27:18.148Z,46.90
2023-05-05T11:30:08.511Z,46.30
2023-05-05T11:33:25.992Z,47.70
2023-05-05T11:36:14.438Z,47.20
2023-05-05T11:39:09.728Z,46.70
2023-05-05T11:42:16.501Z,47.10
2023-05-05T11:45:20.140Z,47.50
2023-05-05T11:48:25.920Z,49.10
2023-05-05T11:51:12.776Z,48.60
2023-05-05T11:54:00.206Z,47.20
2023-05-05T11:56:51.979Z,48.30
2023-05-05T11:59:53.069Z,48.00
2023-05-05T12:02:40.225Z,46.20
2023-05-05T12:05:27.356Z,45.90
2023-05-05T12:08:14.988Z,44.90
2023-05-05T12:11:04.660Z,44.00
2023-05-05T12:13:51.632Z,46.10
2023-05-05T12:16:41.002Z,47.00
2023-05-05T12:19:33.124Z,46.10
2023-05-05T12:22:22.587Z,46.90
2023-05-05T12:25:10.349Z,46.70
2023-05-05T12:27:57.562Z,45.90
2023-05-05T12:30:44.849Z,45.20
2023-05-05T12:33:40.832Z,45.20
2023-05-05T12:36:30.398Z,44.20
2023-05-05T12:39:17.519Z,46.80
2023-05-05T12:42:05.380Z,44.90
2023-05-05T12:44:52.877Z,45.70
2023-05-05T12:47:44.306Z,44.90
2023-05-05T12:50:33.813Z,45.30
2023-05-05T12:53:23.113Z,44.30
2023-05-05T12:56:33.377Z,44.50
2023-05-05T12:59:35.584Z,44.80
2023-05-05T13:02:34.837Z,44.70
2023-05-05T13:05:33.652Z,44.20
2023-05-05T13:08:21.023Z,45.90
2023-05-05T13:11:08.184Z,46.00
2023-05-05T13:13:55.417Z,43.60
2023-05-05T13:16:42.432Z,44.30
2023-05-05T13:19:30.001Z,43.40
2023-05-05T13:22:18.626Z,45.20
2023-05-05T13:25:06.111Z,44.70
2023-05-05T13:27:53.302Z,45.80
2023-05-05T13:30:42.118Z,45.30
2023-05-05T13:33:29.372Z,44.20
2023-05-05T13:36:16.583Z,44.20
2023-05-05T13:39:05.083Z,44.90
2023-05-05T13:41:52.322Z,44.50
2023-05-05T13:44:39.823Z,43.80
2023-05-05T13:47:27.426Z,44.10
2023-05-05T13:50:14.849Z,43.90
2023-05-05T13:53:02.005Z,44.90
2023-05-05T13:55:50.697Z,45.70
2023-05-05T13:58:38.061Z,47.00
2023-05-05T14:01:26.081Z,45.70
2023-05-05T14:04:13.690Z,44.40
2023-05-05T14:07:01.434Z,45.50
2023-05-05T14:09:49.247Z,46.30
2023-05-05T14:12:38.194Z,46.60
2023-05-05T14:15:25.411Z,46.90
2023-05-05T14:18:12.618Z,47.80
2023-05-05T14:20:59.948Z,48.10
2023-05-05T14:23:47.315Z,48.20
2023-05-05T14:26:34.307Z,48.60
2023-05-05T14:29:22.742Z,48.70
2023-05-05T14:32:10.121Z,49.80
2023-05-05T14:34:57.053Z,49.50
2023-05-05T14:37:44.307Z,49.10
2023-05-05T14:40:31.459Z,49.00
2023-05-05T14:43:18.802Z,48.20
2023-05-05T14:46:08.232Z,49.30
2023-05-05T14:48:55.547Z,48.90
2023-05-05T14:51:43.000Z,48.70
2023-05-05T14:54:30.361Z,48.60
2023-05-05T14:57:17.278Z,50.30
2023-05-05T15:00:05.338Z,49.50
2023-05-05T15:02:54.174Z,49.80
2023-05-05T15:05:42.371Z,50.30
2023-05-05T15:08:29.980Z,50.30
2023-05-05T15:11:17.014Z,50.00
2023-05-05T15:14:05.644Z,51.40
2023-05-05T15:16:53.213Z,50.10
2023-05-05T15:19:42.105Z,51.00
2023-05-05T15:22:29.011Z,50.50
2023-05-05T15:25:16.599Z,50.70
2023-05-05T15:28:03.753Z,51.00
2023-05-05T15:30:50.832Z,51.30
2023-05-05T15:33:38.203Z,51.30
2023-05-05T15:36:27.105Z,51.80
2023-05-05T15:39:14.324Z,52.40
2023-05-05T15:42:03.865Z,52.20
2023-05-05T15:44:50.888Z,52.10
2023-05-05T15:47:38.289Z,52.20
2023-05-05T15:50:25.563Z,51.60
2023-05-05T15:53:14.079Z,51.40
2023-05-05T15:56:01.358Z,52.30
2023-05-05T15:58:48.779Z,51.80
2023-05-05T16:01:36.617Z,51.80
2023-05-05T16:04:23.918Z,52.10
2023-05-05T16:07:11.640Z,52.50
2023-05-05T16:09:59.946Z,53.40
2023-05-05T16:12:47.131Z,52.70
2023-05-05T16:15:35.398Z,52.90
2023-05-05T16:18:22.358Z,53.00
2023-05-05T16:21:09.393Z,53.40
2023-05-05T16:23:57.116Z,53.50
2023-05-05T16:26:45.757Z,53.80
2023-05-05T16:29:33.210Z,54.20
2023-05-05T16:32:20.216Z,54.00
2023-05-05T16:35:09.476Z,53.90
2023-05-05T16:37:56.627Z,53.80
2023-05-05T16:40:43.770Z,54.00
2023-05-05T16:43:32.392Z,54.00
2023-05-05T16:46:19.722Z,53.90
2023-05-05T16:49:07.073Z,54.00
2023-05-05T16:51:54.491Z,54.60
2023-05-05T16:54:41.967Z,54.50
2023-05-05T16:57:29.257Z,54.60
2023-05-05T17:00:18.227Z,55.10
2023-05-05T17:03:08.196Z,55.60
2023-05-05T17:05:55.350Z,55.90
2023-05-05T17:08:42.432Z,56.10
2023-05-05T17:11:29.628Z,56.30
2023-05-05T17:14:16.601Z,56.70
2023-05-05T17:17:05.149Z,56.80
2023-05-05T17:19:52.371Z,56.90
2023-05-05T17:22:39.356Z,57.30
2023-05-05T17:25:27.221Z,57.30
2023-05-05T17:28:14.915Z,58.10
2023-05-05T17:31:02.224Z,58.40
2023-05-05T17:33:50.595Z,57.20
2023-05-05T17:36:41.121Z,57.50
2023-05-05T17:39:28.155Z,57.30
2023-05-05T17:42:16.823Z,58.00
2023-05-05T17:45:03.853Z,57.80
2023-05-05T17:47:51.060Z,57.90
2023-05-05T17:50:41.361Z,58.00
2023-05-05T17:53:30.530Z,58.30
2023-05-05T17:56:21.060Z,58.30
2023-05-05T17:59:08.993Z,58.40
2023-05-05T18:01:55.821Z,58.60
2023-05-05T18:04:42.877Z,58.70
2023-05-05T18:07:32.016Z,58.90
2023-05-05T18:10:19.227Z,59.20
2023-05-05T18:13:06.343Z,59.20
2023-05-05T18:15:53.745Z,59.80
2023-05-05T18:18:41.852Z,59.70
2023-05-05T18:21:30.071Z,60.80
2023-05-05T18:24:21.735Z,60.90
2023-05-05T18:27:09.160Z,61.00
2023-05-05T18:29:56.192Z,61.00
2023-05-05T18:32:43.757Z,61.20
2023-05-05T18:35:32.072Z,61.80
2023-05-05T18:38:19.703Z,62.10
2023-05-05T18:41:08.352Z,62.30
2023-05-05T18:43:55.291Z,62.50
2023-05-05T18:46:43.124Z,62.40
2023-05-05T18:49:31.529Z,62.60
2023-05-05T18:52:18.834Z,62.80
2023-05-05T18:55:06.071Z,63.80
2023-05-05T18:57:54.381Z,64.10
2023-05-05T19:00:41.906Z,60.90
2023-05-05T19:03:29.250Z,62.40
2023-05-05T19:06:17.621Z,60.80
2023-05-05T19:09:04.902Z,62.90
2023-05-05T19:11:52.091Z,66.70
2023-05-05T19:14:40.747Z,70.60
2023-05-05T19:17:28.149Z,73.60
2023-05-05T19:23:04.490Z,76.70
2023-05-05T19:25:52.529Z,78.40
2023-05-05T19:28:39.762Z,80.10
2023-05-05T19:31:30.905Z,80.90
2023-05-05T19:34:18.128Z,82.00
2023-05-05T19:37:05.333Z,83.00
2023-05-05T19:39:52.429Z,81.70
2023-05-05T19:42:39.614Z,85.00
2023-05-05T19:45:26.971Z,86.10
2023-05-05T19:48:16.199Z,87.00
2023-05-05T19:51:03.838Z,87.40
2023-05-05T19:53:50.891Z,87.80
2023-05-05T19:56:37.902Z,88.30
2023-05-05T19:59:25.300Z,88.70
2023-05-05T20:02:15.621Z,89.40
2023-05-05T20:05:04.280Z,90.00
2023-05-05T20:07:51.824Z,90.60
2023-05-05T20:10:39.303Z,90.50
2023-05-05T20:13:27.211Z,90.60
2023-05-05T20:16:15.002Z,90.80
2023-05-05T20:19:02.505Z,90.90
2023-05-05T20:21:51.226Z,91.30
2023-05-05T20:24:38.326Z,91.40
2023-05-05T20:27:26.740Z,91.70
2023-05-05T20:30:15.630Z,91.80
2023-05-05T20:33:02.687Z,92.00
2023-05-05T20:35:49.690Z,92.20
2023-05-05T20:38:38.054Z,92.30
2023-05-05T20:41:25.012Z,92.60
2023-05-05T20:44:12.182Z,92.60
2023-05-05T20:46:59.362Z,92.60
2023-05-05T20:49:46.521Z,92.80
2023-05-05T20:52:35.726Z,92.90
2023-05-05T20:55:24.484Z,93.00
2023-05-05T20:58:11.655Z,93.10
2023-05-05T21:00:58.904Z,93.20
2023-05-05T21:03:46.042Z,93.30
2023-05-05T21:06:33.678Z,93.40
2023-05-05T21:09:21.530Z,93.60
2023-05-05T21:12:09.926Z,93.60
2023-05-05T21:14:58.926Z,93.70
2023-05-05T21:17:46.535Z,93.70
2023-05-05T21:20:33.716Z,94.20
2023-05-05T21:23:20.900Z,93.90
2023-05-05T21:26:07.798Z,94.00
2023-05-05T21:28:56.127Z,94.20
2023-05-05T21:31:43.281Z,94.20
2023-05-05T21:34:30.675Z,94.30
2023-05-05T21:37:18.010Z,94.40
2023-05-05T21:40:05.962Z,94.50
2023-05-05T21:42:52.997Z,94.60
2023-05-05T21:45:41.656Z,95.10
2023-05-05T21:48:28.596Z,94.80
2023-05-05T21:51:15.687Z,94.90
2023-05-05T21:54:02.767Z,95.00
2023-05-05T21:56:50.074Z,95.10
2023-05-05T21:59:37.009Z,95.10
2023-05-05T22:02:25.650Z,95.30
2023-05-05T22:05:13.359Z,95.40
2023-05-05T22:08:00.928Z,95.40
2023-05-05T22:10:48.052Z,95.40
2023-05-05T22:13:35.437Z,95.50
2023-05-05T22:16:22.433Z,95.50
2023-05-05T22:19:10.924Z,95.60
2023-05-05T22:21:58.840Z,95.80
2023-05-05T22:24:46.076Z,95.90
2023-05-05T22:27:33.068Z,96.00
2023-05-05T22:30:19.977Z,96.00
2023-05-05T22:33:07.264Z,96.00
2023-05-05T22:35:55.856Z,96.10
2023-05-05T22:38:42.996Z,96.10
2023-05-05T22:41:30.052Z,96.10
2023-05-05T22:44:17.211Z,96.10
2023-05-05T22:47:04.912Z,96.20
2023-05-05T22:49:52.089Z,96.20
2023-05-05T22:52:40.300Z,96.30
2023-05-05T22:55:27.429Z,96.40
2023-05-05T22:58:14.558Z,96.40
2023-05-05T23:01:01.581Z,96.40
2023-05-05T23:03:49.076Z,96.50
2023-05-05T23:06:36.192Z,96.60
2023-05-05T23:09:24.499Z,96.70
2023-05-05T23:12:11.750Z,96.80
2023-05-05T23:14:58.927Z,96.90
2023-05-05T23:17:46.005Z,97.00
2023-05-05T23:20:33.464Z,97.00
2023-05-05T23:23:20.490Z,97.20
2023-05-05T23:26:09.040Z,97.10
2023-05-05T23:31:43.856Z,96.90
2023-05-05T23:34:31.422Z,97.10
2023-05-05T23:37:18.605Z,97.10
2023-05-05T23:40:07.387Z,97.10
2023-05-05T23:42:55.960Z,97.10
2023-05-05T23:45:43.163Z,97.10
2023-05-05T23:48:29.948Z,97.20
2023-05-05T23:51:16.946Z,97.20
2023-05-05T23:54:04.327Z,97.10
2023-05-05T23:56:51.537Z,97.10
2023-05-05T23:59:40.926Z,97.10
